sensor_id;sensor_type;location;lat;lon;timestamp;P1;durP1;ratioP1;P2;durP2;ratioP2
85137;SDS011;75497;42.708;23.330;2024-02-21T00:01:40;9.48;;;4.50;;
85137;SDS011;75497;42.708;23.330;2024-02-21T00:04:05;11.02;;;4.88;;
85137;SDS011;75497;42.708;23.330;2024-02-21T00:06:31;10.48;;;5.15;;
85137;SDS011;75497;42.708;23.330;2024-02-21T00:08:57;9.13;;;4.32;;
85137;SDS011;75497;42.708;23.330;2024-02-21T00:11:23;12.02;;;4.57;;
85137;SDS011;75497;42.708;23.330;2024-02-21T00:13:48;9.35;;;4.70;;
85137;SDS011;75497;42.708;23.330;2024-02-21T00:16:16;11.13;;;4.95;;
85137;SDS011;75497;42.708;23.330;2024-02-21T00:18:41;8.95;;;4.45;;
85137;SDS011;75497;42.708;23.330;2024-02-21T00:21:07;12.00;;;5.57;;
85137;SDS011;75497;42.708;23.330;2024-02-21T00:23:33;9.95;;;4.60;;
85137;SDS011;75497;42.708;23.330;2024-02-21T00:25:58;12.60;;;5.13;;
85137;SDS011;75497;42.708;23.330;2024-02-21T00:28:24;11.45;;;4.97;;
85137;SDS011;75497;42.708;23.330;2024-02-21T00:30:49;10.13;;;5.32;;
85137;SDS011;75497;42.708;23.330;2024-02-21T00:33:18;11.82;;;4.68;;
85137;SDS011;75497;42.708;23.330;2024-02-21T00:35:44;10.27;;;4.60;;
85137;SDS011;75497;42.708;23.330;2024-02-21T00:38:09;9.88;;;4.00;;
85137;SDS011;75497;42.708;23.330;2024-02-21T00:40:35;12.93;;;5.30;;
85137;SDS011;75497;42.708;23.330;2024-02-21T00:43:01;10.77;;;5.13;;
85137;SDS011;75497;42.708;23.330;2024-02-21T00:45:26;8.75;;;4.07;;
85137;SDS011;75497;42.708;23.330;2024-02-21T00:47:52;10.60;;;4.75;;
85137;SDS011;75497;42.708;23.330;2024-02-21T00:50:17;10.70;;;4.07;;
85137;SDS011;75497;42.708;23.330;2024-02-21T00:52:43;11.07;;;4.20;;
85137;SDS011;75497;42.708;23.330;2024-02-21T00:55:09;7.93;;;3.63;;
85137;SDS011;75497;42.708;23.330;2024-02-21T00:57:35;10.18;;;4.45;;
85137;SDS011;75497;42.708;23.330;2024-02-21T01:00:01;9.48;;;4.05;;
85137;SDS011;75497;42.708;23.330;2024-02-21T01:02:27;10.18;;;4.20;;
85137;SDS011;75497;42.708;23.330;2024-02-21T01:04:53;9.02;;;3.67;;
85137;SDS011;75497;42.708;23.330;2024-02-21T01:07:19;10.00;;;3.83;;
85137;SDS011;75497;42.708;23.330;2024-02-21T01:09:44;8.88;;;4.03;;
85137;SDS011;75497;42.708;23.330;2024-02-21T01:12:10;9.30;;;4.55;;
85137;SDS011;75497;42.708;23.330;2024-02-21T01:14:36;9.95;;;4.18;;
85137;SDS011;75497;42.708;23.330;2024-02-21T01:17:01;9.90;;;4.05;;
85137;SDS011;75497;42.708;23.330;2024-02-21T01:19:27;9.60;;;4.25;;
85137;SDS011;75497;42.708;23.330;2024-02-21T01:21:52;8.73;;;4.50;;
85137;SDS011;75497;42.708;23.330;2024-02-21T01:24:18;9.50;;;4.78;;
85137;SDS011;75497;42.708;23.330;2024-02-21T01:26:43;10.38;;;4.78;;
85137;SDS011;75497;42.708;23.330;2024-02-21T01:29:09;10.85;;;4.70;;
85137;SDS011;75497;42.708;23.330;2024-02-21T01:31:34;10.48;;;4.35;;
85137;SDS011;75497;42.708;23.330;2024-02-21T01:34:00;9.50;;;4.43;;
85137;SDS011;75497;42.708;23.330;2024-02-21T01:36:25;10.73;;;4.95;;
85137;SDS011;75497;42.708;23.330;2024-02-21T01:38:51;9.60;;;4.32;;
85137;SDS011;75497;42.708;23.330;2024-02-21T01:41:17;10.13;;;4.75;;
85137;SDS011;75497;42.708;23.330;2024-02-21T01:43:42;10.45;;;4.75;;
85137;SDS011;75497;42.708;23.330;2024-02-21T01:46:08;9.43;;;4.53;;
85137;SDS011;75497;42.708;23.330;2024-02-21T01:48:33;9.70;;;3.95;;
85137;SDS011;75497;42.708;23.330;2024-02-21T01:51:00;9.88;;;4.18;;
85137;SDS011;75497;42.708;23.330;2024-02-21T01:53:35;8.55;;;3.85;;
85137;SDS011;75497;42.708;23.330;2024-02-21T01:56:03;8.75;;;3.60;;
85137;SDS011;75497;42.708;23.330;2024-02-21T01:58:30;9.57;;;4.13;;
85137;SDS011;75497;42.708;23.330;2024-02-21T02:00:57;9.75;;;4.47;;
85137;SDS011;75497;42.708;23.330;2024-02-21T02:03:23;9.77;;;4.25;;
85137;SDS011;75497;42.708;23.330;2024-02-21T02:05:50;9.38;;;4.60;;
85137;SDS011;75497;42.708;23.330;2024-02-21T02:08:17;10.45;;;4.28;;
85137;SDS011;75497;42.708;23.330;2024-02-21T02:10:44;9.23;;;4.38;;
85137;SDS011;75497;42.708;23.330;2024-02-21T02:13:11;9.88;;;4.80;;
85137;SDS011;75497;42.708;23.330;2024-02-21T02:18:06;10.15;;;4.90;;
85137;SDS011;75497;42.708;23.330;2024-02-21T02:20:32;11.18;;;5.70;;
85137;SDS011;75497;42.708;23.330;2024-02-21T02:22:58;11.40;;;5.05;;
85137;SDS011;75497;42.708;23.330;2024-02-21T02:25:26;13.02;;;5.90;;
85137;SDS011;75497;42.708;23.330;2024-02-21T02:27:51;13.75;;;6.72;;
85137;SDS011;75497;42.708;23.330;2024-02-21T02:30:18;10.90;;;5.75;;
85137;SDS011;75497;42.708;23.330;2024-02-21T02:32:46;12.57;;;5.93;;
85137;SDS011;75497;42.708;23.330;2024-02-21T02:35:12;12.40;;;5.97;;
85137;SDS011;75497;42.708;23.330;2024-02-21T02:37:38;14.23;;;6.28;;
85137;SDS011;75497;42.708;23.330;2024-02-21T02:40:05;11.48;;;6.05;;
85137;SDS011;75497;42.708;23.330;2024-02-21T02:42:33;11.50;;;5.72;;
85137;SDS011;75497;42.708;23.330;2024-02-21T02:45:00;12.25;;;6.20;;
85137;SDS011;75497;42.708;23.330;2024-02-21T02:47:25;14.05;;;6.10;;
85137;SDS011;75497;42.708;23.330;2024-02-21T02:49:51;11.95;;;6.25;;
85137;SDS011;75497;42.708;23.330;2024-02-21T02:52:17;10.95;;;5.50;;
85137;SDS011;75497;42.708;23.330;2024-02-21T02:54:43;12.70;;;5.68;;
85137;SDS011;75497;42.708;23.330;2024-02-21T02:57:09;12.10;;;6.13;;
85137;SDS011;75497;42.708;23.330;2024-02-21T02:59:35;12.80;;;6.43;;
85137;SDS011;75497;42.708;23.330;2024-02-21T03:02:00;12.02;;;5.88;;
85137;SDS011;75497;42.708;23.330;2024-02-21T03:04:26;11.90;;;6.10;;
85137;SDS011;75497;42.708;23.330;2024-02-21T03:06:52;15.18;;;7.85;;
85137;SDS011;75497;42.708;23.330;2024-02-21T03:09:17;13.70;;;6.78;;
85137;SDS011;75497;42.708;23.330;2024-02-21T03:11:43;14.25;;;6.75;;
85137;SDS011;75497;42.708;23.330;2024-02-21T03:14:09;13.52;;;6.85;;
85137;SDS011;75497;42.708;23.330;2024-02-21T03:16:35;13.63;;;7.07;;
85137;SDS011;75497;42.708;23.330;2024-02-21T03:19:01;15.45;;;7.50;;
85137;SDS011;75497;42.708;23.330;2024-02-21T03:21:29;15.80;;;7.82;;
85137;SDS011;75497;42.708;23.330;2024-02-21T03:23:55;15.55;;;7.88;;
85137;SDS011;75497;42.708;23.330;2024-02-21T03:26:20;15.82;;;7.93;;
85137;SDS011;75497;42.708;23.330;2024-02-21T03:28:46;15.82;;;8.15;;
85137;SDS011;75497;42.708;23.330;2024-02-21T03:31:12;14.57;;;7.82;;
85137;SDS011;75497;42.708;23.330;2024-02-21T03:33:39;15.02;;;7.63;;
85137;SDS011;75497;42.708;23.330;2024-02-21T03:36:12;15.40;;;8.00;;
85137;SDS011;75497;42.708;23.330;2024-02-21T03:38:39;15.02;;;7.82;;
85137;SDS011;75497;42.708;23.330;2024-02-21T03:41:05;15.52;;;8.07;;
85137;SDS011;75497;42.708;23.330;2024-02-21T03:43:31;17.08;;;8.95;;
85137;SDS011;75497;42.708;23.330;2024-02-21T03:45:56;16.65;;;7.65;;
85137;SDS011;75497;42.708;23.330;2024-02-21T03:48:22;14.43;;;8.10;;
85137;SDS011;75497;42.708;23.330;2024-02-21T03:50:47;14.15;;;7.45;;
85137;SDS011;75497;42.708;23.330;2024-02-21T03:53:13;16.52;;;8.00;;
85137;SDS011;75497;42.708;23.330;2024-02-21T03:55:39;15.98;;;8.57;;
85137;SDS011;75497;42.708;23.330;2024-02-21T03:58:04;14.60;;;7.88;;
85137;SDS011;75497;42.708;23.330;2024-02-21T04:00:32;16.60;;;8.35;;
85137;SDS011;75497;42.708;23.330;2024-02-21T04:02:57;16.20;;;7.65;;
85137;SDS011;75497;42.708;23.330;2024-02-21T04:05:23;16.70;;;8.45;;
85137;SDS011;75497;42.708;23.330;2024-02-21T04:07:48;15.80;;;7.70;;
85137;SDS011;75497;42.708;23.330;2024-02-21T04:10:14;16.98;;;7.88;;
85137;SDS011;75497;42.708;23.330;2024-02-21T04:12:39;17.10;;;8.13;;
85137;SDS011;75497;42.708;23.330;2024-02-21T04:15:05;14.95;;;7.88;;
85137;SDS011;75497;42.708;23.330;2024-02-21T04:17:31;16.27;;;8.35;;
85137;SDS011;75497;42.708;23.330;2024-02-21T04:20:01;17.90;;;8.65;;
85137;SDS011;75497;42.708;23.330;2024-02-21T04:22:30;16.83;;;8.07;;
85137;SDS011;75497;42.708;23.330;2024-02-21T04:24:59;14.75;;;8.20;;
85137;SDS011;75497;42.708;23.330;2024-02-21T04:27:25;15.25;;;7.40;;
85137;SDS011;75497;42.708;23.330;2024-02-21T04:29:51;16.75;;;8.30;;
85137;SDS011;75497;42.708;23.330;2024-02-21T04:32:17;16.20;;;7.55;;
85137;SDS011;75497;42.708;23.330;2024-02-21T04:34:42;17.40;;;8.30;;
85137;SDS011;75497;42.708;23.330;2024-02-21T04:37:08;18.02;;;8.50;;
85137;SDS011;75497;42.708;23.330;2024-02-21T04:39:33;15.68;;;8.10;;
85137;SDS011;75497;42.708;23.330;2024-02-21T04:41:59;16.60;;;8.20;;
85137;SDS011;75497;42.708;23.330;2024-02-21T04:44:24;15.07;;;7.80;;
85137;SDS011;75497;42.708;23.330;2024-02-21T04:46:51;16.90;;;7.88;;
85137;SDS011;75497;42.708;23.330;2024-02-21T04:49:17;14.82;;;8.27;;
85137;SDS011;75497;42.708;23.330;2024-02-21T04:51:42;14.85;;;7.65;;
85137;SDS011;75497;42.708;23.330;2024-02-21T04:54:08;14.80;;;7.78;;
85137;SDS011;75497;42.708;23.330;2024-02-21T04:56:34;15.85;;;8.35;;
85137;SDS011;75497;42.708;23.330;2024-02-21T04:59:01;17.50;;;8.90;;
85137;SDS011;75497;42.708;23.330;2024-02-21T05:01:27;17.02;;;8.70;;
85137;SDS011;75497;42.708;23.330;2024-02-21T05:03:53;16.05;;;8.40;;
85137;SDS011;75497;42.708;23.330;2024-02-21T05:06:19;17.58;;;9.57;;
85137;SDS011;75497;42.708;23.330;2024-02-21T05:08:44;19.63;;;9.95;;
85137;SDS011;75497;42.708;23.330;2024-02-21T05:11:10;21.52;;;10.80;;
85137;SDS011;75497;42.708;23.330;2024-02-21T05:13:36;19.65;;;11.80;;
85137;SDS011;75497;42.708;23.330;2024-02-21T05:16:01;21.73;;;13.07;;
85137;SDS011;75497;42.708;23.330;2024-02-21T05:18:28;24.08;;;12.98;;
85137;SDS011;75497;42.708;23.330;2024-02-21T05:20:53;24.05;;;13.35;;
85137;SDS011;75497;42.708;23.330;2024-02-21T05:23:20;21.77;;;11.43;;
85137;SDS011;75497;42.708;23.330;2024-02-21T05:25:46;25.42;;;13.20;;
85137;SDS011;75497;42.708;23.330;2024-02-21T05:28:11;20.52;;;10.27;;
85137;SDS011;75497;42.708;23.330;2024-02-21T05:30:37;26.02;;;12.27;;
85137;SDS011;75497;42.708;23.330;2024-02-21T05:33:05;23.48;;;11.57;;
85137;SDS011;75497;42.708;23.330;2024-02-21T05:35:31;20.83;;;10.93;;
85137;SDS011;75497;42.708;23.330;2024-02-21T05:37:57;24.40;;;12.38;;
85137;SDS011;75497;42.708;23.330;2024-02-21T05:40:22;19.30;;;10.63;;
85137;SDS011;75497;42.708;23.330;2024-02-21T05:42:48;17.73;;;9.40;;
85137;SDS011;75497;42.708;23.330;2024-02-21T05:45:13;17.75;;;10.30;;
85137;SDS011;75497;42.708;23.330;2024-02-21T05:47:40;19.20;;;10.82;;
85137;SDS011;75497;42.708;23.330;2024-02-21T05:50:07;22.52;;;9.93;;
85137;SDS011;75497;42.708;23.330;2024-02-21T05:52:32;20.42;;;9.23;;
85137;SDS011;75497;42.708;23.330;2024-02-21T05:54:58;18.25;;;9.73;;
85137;SDS011;75497;42.708;23.330;2024-02-21T05:57:23;18.48;;;9.52;;
85137;SDS011;75497;42.708;23.330;2024-02-21T05:59:49;22.90;;;9.65;;
85137;SDS011;75497;42.708;23.330;2024-02-21T06:02:15;21.25;;;10.55;;
85137;SDS011;75497;42.708;23.330;2024-02-21T06:04:40;18.83;;;10.43;;
85137;SDS011;75497;42.708;23.330;2024-02-21T06:07:07;20.17;;;11.10;;
85137;SDS011;75497;42.708;23.330;2024-02-21T06:09:34;21.42;;;10.82;;
85137;SDS011;75497;42.708;23.330;2024-02-21T06:11:59;22.60;;;11.07;;
85137;SDS011;75497;42.708;23.330;2024-02-21T06:14:26;20.77;;;10.70;;
85137;SDS011;75497;42.708;23.330;2024-02-21T06:16:51;20.20;;;10.52;;
85137;SDS011;75497;42.708;23.330;2024-02-21T06:19:17;21.00;;;10.07;;
85137;SDS011;75497;42.708;23.330;2024-02-21T06:21:42;17.20;;;9.85;;
85137;SDS011;75497;42.708;23.330;2024-02-21T06:24:08;20.08;;;10.30;;
85137;SDS011;75497;42.708;23.330;2024-02-21T06:26:33;21.65;;;12.27;;
85137;SDS011;75497;42.708;23.330;2024-02-21T06:28:59;21.23;;;13.32;;
85137;SDS011;75497;42.708;23.330;2024-02-21T06:31:25;23.60;;;14.02;;
85137;SDS011;75497;42.708;23.330;2024-02-21T06:33:50;20.30;;;11.85;;
85137;SDS011;75497;42.708;23.330;2024-02-21T06:36:16;24.10;;;13.70;;
85137;SDS011;75497;42.708;23.330;2024-02-21T06:38:41;25.13;;;13.07;;
85137;SDS011;75497;42.708;23.330;2024-02-21T06:41:14;25.83;;;15.27;;
85137;SDS011;75497;42.708;23.330;2024-02-21T06:43:44;23.90;;;13.80;;
85137;SDS011;75497;42.708;23.330;2024-02-21T06:46:22;26.00;;;14.30;;
85137;SDS011;75497;42.708;23.330;2024-02-21T06:48:49;30.70;;;17.45;;
85137;SDS011;75497;42.708;23.330;2024-02-21T06:51:15;24.85;;;14.98;;
85137;SDS011;75497;42.708;23.330;2024-02-21T06:53:40;26.08;;;14.32;;
85137;SDS011;75497;42.708;23.330;2024-02-21T06:56:06;25.88;;;12.77;;
85137;SDS011;75497;42.708;23.330;2024-02-21T06:58:31;26.88;;;14.00;;
85137;SDS011;75497;42.708;23.330;2024-02-21T07:00:57;24.52;;;14.07;;
85137;SDS011;75497;42.708;23.330;2024-02-21T07:03:23;28.83;;;13.77;;
85137;SDS011;75497;42.708;23.330;2024-02-21T07:05:49;26.23;;;14.05;;
85137;SDS011;75497;42.708;23.330;2024-02-21T07:08:15;29.23;;;12.40;;
85137;SDS011;75497;42.708;23.330;2024-02-21T07:10:40;25.27;;;13.38;;
85137;SDS011;75497;42.708;23.330;2024-02-21T07:13:06;23.23;;;11.73;;
85137;SDS011;75497;42.708;23.330;2024-02-21T07:15:32;22.55;;;12.00;;
85137;SDS011;75497;42.708;23.330;2024-02-21T07:17:58;21.58;;;12.40;;
85137;SDS011;75497;42.708;23.330;2024-02-21T07:20:24;21.80;;;11.55;;
85137;SDS011;75497;42.708;23.330;2024-02-21T07:22:50;20.88;;;11.35;;
85137;SDS011;75497;42.708;23.330;2024-02-21T07:25:16;22.10;;;11.68;;
85137;SDS011;75497;42.708;23.330;2024-02-21T07:27:42;21.98;;;11.43;;
85137;SDS011;75497;42.708;23.330;2024-02-21T07:30:08;20.27;;;10.88;;
85137;SDS011;75497;42.708;23.330;2024-02-21T07:32:34;24.00;;;11.32;;
85137;SDS011;75497;42.708;23.330;2024-02-21T07:35:00;21.73;;;10.15;;
85137;SDS011;75497;42.708;23.330;2024-02-21T07:37:25;21.42;;;11.30;;
85137;SDS011;75497;42.708;23.330;2024-02-21T07:39:51;19.27;;;10.52;;
85137;SDS011;75497;42.708;23.330;2024-02-21T07:42:17;19.60;;;9.75;;
85137;SDS011;75497;42.708;23.330;2024-02-21T07:44:42;20.08;;;9.20;;
85137;SDS011;75497;42.708;23.330;2024-02-21T07:47:08;17.02;;;9.23;;
85137;SDS011;75497;42.708;23.330;2024-02-21T07:49:40;18.38;;;10.27;;
85137;SDS011;75497;42.708;23.330;2024-02-21T07:52:06;18.67;;;9.43;;
85137;SDS011;75497;42.708;23.330;2024-02-21T07:54:32;23.90;;;11.23;;
85137;SDS011;75497;42.708;23.330;2024-02-21T07:56:58;19.13;;;10.13;;
85137;SDS011;75497;42.708;23.330;2024-02-21T07:59:23;24.30;;;9.38;;
85137;SDS011;75497;42.708;23.330;2024-02-21T08:01:49;20.23;;;9.55;;
85137;SDS011;75497;42.708;23.330;2024-02-21T08:04:15;16.60;;;8.93;;
85137;SDS011;75497;42.708;23.330;2024-02-21T08:06:40;16.98;;;9.40;;
85137;SDS011;75497;42.708;23.330;2024-02-21T08:09:06;17.75;;;9.77;;
85137;SDS011;75497;42.708;23.330;2024-02-21T08:11:31;20.58;;;11.00;;
85137;SDS011;75497;42.708;23.330;2024-02-21T08:13:57;33.42;;;11.77;;
85137;SDS011;75497;42.708;23.330;2024-02-21T08:16:23;17.80;;;9.88;;
85137;SDS011;75497;42.708;23.330;2024-02-21T08:18:48;19.77;;;10.35;;
85137;SDS011;75497;42.708;23.330;2024-02-21T08:21:14;21.52;;;11.23;;
85137;SDS011;75497;42.708;23.330;2024-02-21T08:23:39;20.90;;;10.30;;
85137;SDS011;75497;42.708;23.330;2024-02-21T08:26:05;18.70;;;10.50;;
85137;SDS011;75497;42.708;23.330;2024-02-21T08:28:31;19.38;;;11.10;;
85137;SDS011;75497;42.708;23.330;2024-02-21T08:30:57;23.15;;;12.10;;
85137;SDS011;75497;42.708;23.330;2024-02-21T08:33:22;18.08;;;10.45;;
85137;SDS011;75497;42.708;23.330;2024-02-21T08:35:50;19.02;;;9.57;;
85137;SDS011;75497;42.708;23.330;2024-02-21T08:38:16;20.20;;;10.40;;
85137;SDS011;75497;42.708;23.330;2024-02-21T08:40:42;17.30;;;9.68;;
85137;SDS011;75497;42.708;23.330;2024-02-21T08:43:08;21.48;;;11.20;;
85137;SDS011;75497;42.708;23.330;2024-02-21T08:45:33;19.67;;;10.75;;
85137;SDS011;75497;42.708;23.330;2024-02-21T08:47:59;19.45;;;10.48;;
85137;SDS011;75497;42.708;23.330;2024-02-21T08:50:24;23.63;;;12.05;;
85137;SDS011;75497;42.708;23.330;2024-02-21T08:52:50;21.20;;;11.40;;
85137;SDS011;75497;42.708;23.330;2024-02-21T08:55:16;20.58;;;11.35;;
85137;SDS011;75497;42.708;23.330;2024-02-21T08:57:41;21.90;;;10.70;;
85137;SDS011;75497;42.708;23.330;2024-02-21T09:00:07;21.90;;;11.05;;
85137;SDS011;75497;42.708;23.330;2024-02-21T09:02:39;18.90;;;10.18;;
85137;SDS011;75497;42.708;23.330;2024-02-21T09:05:09;20.75;;;11.13;;
85137;SDS011;75497;42.708;23.330;2024-02-21T09:07:34;21.33;;;10.63;;
85137;SDS011;75497;42.708;23.330;2024-02-21T09:10:00;19.48;;;10.05;;
85137;SDS011;75497;42.708;23.330;2024-02-21T09:12:26;18.08;;;10.90;;
85137;SDS011;75497;42.708;23.330;2024-02-21T09:14:51;17.27;;;9.57;;
85137;SDS011;75497;42.708;23.330;2024-02-21T09:17:17;17.27;;;9.15;;
85137;SDS011;75497;42.708;23.330;2024-02-21T09:19:43;20.08;;;10.82;;
85137;SDS011;75497;42.708;23.330;2024-02-21T09:22:09;18.70;;;10.13;;
85137;SDS011;75497;42.708;23.330;2024-02-21T09:24:34;18.95;;;9.55;;
85137;SDS011;75497;42.708;23.330;2024-02-21T09:27:00;20.58;;;10.60;;
85137;SDS011;75497;42.708;23.330;2024-02-21T09:29:26;19.40;;;10.35;;
85137;SDS011;75497;42.708;23.330;2024-02-21T09:31:51;16.25;;;9.27;;
85137;SDS011;75497;42.708;23.330;2024-02-21T09:34:17;19.75;;;9.88;;
85137;SDS011;75497;42.708;23.330;2024-02-21T09:36:43;18.92;;;9.75;;
85137;SDS011;75497;42.708;23.330;2024-02-21T09:39:10;17.20;;;9.98;;
85137;SDS011;75497;42.708;23.330;2024-02-21T09:41:40;18.10;;;10.00;;
85137;SDS011;75497;42.708;23.330;2024-02-21T09:44:23;15.95;;;9.05;;
85137;SDS011;75497;42.708;23.330;2024-02-21T09:46:57;15.60;;;9.07;;
85137;SDS011;75497;42.708;23.330;2024-02-21T09:49:32;15.77;;;8.65;;
85137;SDS011;75497;42.708;23.330;2024-02-21T09:52:02;16.83;;;9.32;;
85137;SDS011;75497;42.708;23.330;2024-02-21T09:54:35;14.95;;;9.20;;
85137;SDS011;75497;42.708;23.330;2024-02-21T09:57:01;15.40;;;8.90;;
85137;SDS011;75497;42.708;23.330;2024-02-21T09:59:28;16.33;;;8.98;;
85137;SDS011;75497;42.708;23.330;2024-02-21T10:01:55;15.00;;;8.38;;
85137;SDS011;75497;42.708;23.330;2024-02-21T10:04:21;12.68;;;6.40;;
85137;SDS011;75497;42.708;23.330;2024-02-21T10:06:47;14.30;;;8.18;;
85137;SDS011;75497;42.708;23.330;2024-02-21T10:09:23;14.00;;;9.05;;
85137;SDS011;75497;42.708;23.330;2024-02-21T10:11:50;14.93;;;8.25;;
85137;SDS011;75497;42.708;23.330;2024-02-21T10:14:16;14.75;;;8.45;;
85137;SDS011;75497;42.708;23.330;2024-02-21T10:16:43;13.13;;;7.80;;
85137;SDS011;75497;42.708;23.330;2024-02-21T10:19:19;11.85;;;7.65;;
85137;SDS011;75497;42.708;23.330;2024-02-21T10:22:06;12.63;;;7.40;;
85137;SDS011;75497;42.708;23.330;2024-02-21T10:24:33;14.63;;;7.05;;
85137;SDS011;75497;42.708;23.330;2024-02-21T10:27:01;11.85;;;7.70;;
85137;SDS011;75497;42.708;23.330;2024-02-21T10:29:29;12.95;;;7.88;;
85137;SDS011;75497;42.708;23.330;2024-02-21T10:34:37;10.98;;;7.03;;
85137;SDS011;75497;42.708;23.330;2024-02-21T10:37:03;12.65;;;7.85;;
85137;SDS011;75497;42.708;23.330;2024-02-21T10:39:34;12.25;;;6.80;;
85137;SDS011;75497;42.708;23.330;2024-02-21T10:42:01;11.57;;;7.70;;
85137;SDS011;75497;42.708;23.330;2024-02-21T10:44:31;10.20;;;6.40;;
85137;SDS011;75497;42.708;23.330;2024-02-21T10:47:08;11.98;;;7.25;;
85137;SDS011;75497;42.708;23.330;2024-02-21T10:49:37;11.15;;;6.55;;
85137;SDS011;75497;42.708;23.330;2024-02-21T10:52:06;9.73;;;5.63;;
85137;SDS011;75497;42.708;23.330;2024-02-21T10:57:22;8.38;;;4.40;;
85137;SDS011;75497;42.708;23.330;2024-02-21T10:59:48;10.77;;;5.85;;
85137;SDS011;75497;42.708;23.330;2024-02-21T11:02:14;9.05;;;5.05;;
85137;SDS011;75497;42.708;23.330;2024-02-21T11:04:40;9.57;;;5.22;;
85137;SDS011;75497;42.708;23.330;2024-02-21T11:07:07;8.63;;;4.50;;
85137;SDS011;75497;42.708;23.330;2024-02-21T11:09:33;8.30;;;4.53;;
85137;SDS011;75497;42.708;23.330;2024-02-21T11:12:02;8.25;;;4.38;;
85137;SDS011;75497;42.708;23.330;2024-02-21T11:14:29;7.20;;;3.25;;
85137;SDS011;75497;42.708;23.330;2024-02-21T11:17:01;7.50;;;3.80;;
85137;SDS011;75497;42.708;23.330;2024-02-21T11:19:28;7.70;;;4.07;;
85137;SDS011;75497;42.708;23.330;2024-02-21T11:21:56;8.60;;;3.92;;
85137;SDS011;75497;42.708;23.330;2024-02-21T11:24:40;7.93;;;4.32;;
85137;SDS011;75497;42.708;23.330;2024-02-21T11:27:12;8.98;;;4.50;;
85137;SDS011;75497;42.708;23.330;2024-02-21T11:29:48;7.22;;;4.18;;
85137;SDS011;75497;42.708;23.330;2024-02-21T11:32:16;8.20;;;4.65;;
85137;SDS011;75497;42.708;23.330;2024-02-21T11:37:29;8.23;;;4.40;;
85137;SDS011;75497;42.708;23.330;2024-02-21T11:39:56;8.48;;;4.43;;
85137;SDS011;75497;42.708;23.330;2024-02-21T11:42:22;9.40;;;4.40;;
85137;SDS011;75497;42.708;23.330;2024-02-21T11:44:50;8.93;;;4.30;;
85137;SDS011;75497;42.708;23.330;2024-02-21T11:47:16;7.90;;;4.60;;
85137;SDS011;75497;42.708;23.330;2024-02-21T11:49:46;8.18;;;4.40;;
85137;SDS011;75497;42.708;23.330;2024-02-21T11:52:15;7.60;;;3.97;;
85137;SDS011;75497;42.708;23.330;2024-02-21T11:54:41;10.23;;;5.18;;
85137;SDS011;75497;42.708;23.330;2024-02-21T11:57:07;7.85;;;3.67;;
85137;SDS011;75497;42.708;23.330;2024-02-21T11:59:34;9.52;;;4.10;;
85137;SDS011;75497;42.708;23.330;2024-02-21T12:02:00;8.43;;;4.43;;
85137;SDS011;75497;42.708;23.330;2024-02-21T12:04:26;9.93;;;4.82;;
85137;SDS011;75497;42.708;23.330;2024-02-21T12:06:53;9.07;;;4.80;;
85137;SDS011;75497;42.708;23.330;2024-02-21T12:09:22;8.40;;;4.28;;
85137;SDS011;75497;42.708;23.330;2024-02-21T12:11:58;8.98;;;4.15;;
85137;SDS011;75497;42.708;23.330;2024-02-21T12:14:24;8.82;;;4.53;;
85137;SDS011;75497;42.708;23.330;2024-02-21T12:16:51;9.35;;;4.72;;
85137;SDS011;75497;42.708;23.330;2024-02-21T12:19:17;9.55;;;5.03;;
85137;SDS011;75497;42.708;23.330;2024-02-21T12:21:43;11.30;;;4.53;;
85137;SDS011;75497;42.708;23.330;2024-02-21T12:24:13;10.05;;;3.80;;
85137;SDS011;75497;42.708;23.330;2024-02-21T12:26:46;11.63;;;4.55;;
85137;SDS011;75497;42.708;23.330;2024-02-21T12:29:11;9.32;;;4.20;;
85137;SDS011;75497;42.708;23.330;2024-02-21T12:31:37;9.75;;;4.47;;
85137;SDS011;75497;42.708;23.330;2024-02-21T12:34:03;9.30;;;4.35;;
85137;SDS011;75497;42.708;23.330;2024-02-21T12:36:32;9.65;;;4.40;;
85137;SDS011;75497;42.708;23.330;2024-02-21T12:39:01;9.55;;;4.35;;
85137;SDS011;75497;42.708;23.330;2024-02-21T12:41:28;9.70;;;4.53;;
85137;SDS011;75497;42.708;23.330;2024-02-21T12:43:55;10.85;;;5.30;;
85137;SDS011;75497;42.708;23.330;2024-02-21T12:46:21;10.60;;;6.00;;
85137;SDS011;75497;42.708;23.330;2024-02-21T12:48:47;11.43;;;6.18;;
85137;SDS011;75497;42.708;23.330;2024-02-21T12:51:13;11.93;;;6.18;;
85137;SDS011;75497;42.708;23.330;2024-02-21T12:53:39;11.05;;;5.82;;
85137;SDS011;75497;42.708;23.330;2024-02-21T12:56:04;12.02;;;6.55;;
85137;SDS011;75497;42.708;23.330;2024-02-21T12:58:32;12.52;;;6.22;;
85137;SDS011;75497;42.708;23.330;2024-02-21T13:00:58;13.82;;;7.13;;
85137;SDS011;75497;42.708;23.330;2024-02-21T13:03:23;10.98;;;5.88;;
85137;SDS011;75497;42.708;23.330;2024-02-21T13:05:49;12.48;;;6.28;;
85137;SDS011;75497;42.708;23.330;2024-02-21T13:08:14;12.50;;;6.93;;
85137;SDS011;75497;42.708;23.330;2024-02-21T13:10:40;11.02;;;5.80;;
85137;SDS011;75497;42.708;23.330;2024-02-21T13:13:06;12.02;;;6.55;;
85137;SDS011;75497;42.708;23.330;2024-02-21T13:15:31;12.45;;;6.20;;
85137;SDS011;75497;42.708;23.330;2024-02-21T13:17:57;14.20;;;7.32;;
85137;SDS011;75497;42.708;23.330;2024-02-21T13:20:24;13.45;;;7.43;;
85137;SDS011;75497;42.708;23.330;2024-02-21T13:22:50;11.10;;;5.90;;
85137;SDS011;75497;42.708;23.330;2024-02-21T13:25:16;13.60;;;6.15;;
85137;SDS011;75497;42.708;23.330;2024-02-21T13:27:45;10.55;;;5.53;;
85137;SDS011;75497;42.708;23.330;2024-02-21T13:30:11;10.52;;;4.70;;
85137;SDS011;75497;42.708;23.330;2024-02-21T13:32:37;9.38;;;4.72;;
85137;SDS011;75497;42.708;23.330;2024-02-21T13:35:03;10.07;;;4.63;;
85137;SDS011;75497;42.708;23.330;2024-02-21T13:37:28;11.73;;;5.07;;
85137;SDS011;75497;42.708;23.330;2024-02-21T13:39:54;10.18;;;5.00;;
85137;SDS011;75497;42.708;23.330;2024-02-21T13:42:20;9.88;;;4.75;;
85137;SDS011;75497;42.708;23.330;2024-02-21T13:44:45;9.45;;;5.25;;
85137;SDS011;75497;42.708;23.330;2024-02-21T13:47:13;10.77;;;5.38;;
85137;SDS011;75497;42.708;23.330;2024-02-21T13:49:39;11.65;;;5.60;;
85137;SDS011;75497;42.708;23.330;2024-02-21T13:52:05;12.02;;;6.07;;
85137;SDS011;75497;42.708;23.330;2024-02-21T13:54:31;11.70;;;6.00;;
85137;SDS011;75497;42.708;23.330;2024-02-21T13:56:56;11.43;;;5.50;;
85137;SDS011;75497;42.708;23.330;2024-02-21T13:59:22;12.25;;;6.47;;
85137;SDS011;75497;42.708;23.330;2024-02-21T14:01:47;11.68;;;7.03;;
85137;SDS011;75497;42.708;23.330;2024-02-21T14:04:13;13.50;;;6.10;;
85137;SDS011;75497;42.708;23.330;2024-02-21T14:06:39;11.48;;;5.13;;
85137;SDS011;75497;42.708;23.330;2024-02-21T14:09:11;10.15;;;4.80;;
85137;SDS011;75497;42.708;23.330;2024-02-21T14:11:37;11.52;;;5.03;;
85137;SDS011;75497;42.708;23.330;2024-02-21T14:14:05;13.63;;;6.60;;
85137;SDS011;75497;42.708;23.330;2024-02-21T14:16:31;10.10;;;4.68;;
85137;SDS011;75497;42.708;23.330;2024-02-21T14:18:57;10.07;;;4.78;;
85137;SDS011;75497;42.708;23.330;2024-02-21T14:21:23;10.70;;;4.50;;
85137;SDS011;75497;42.708;23.330;2024-02-21T14:23:48;12.30;;;4.75;;
85137;SDS011;75497;42.708;23.330;2024-02-21T14:26:14;12.15;;;6.07;;
85137;SDS011;75497;42.708;23.330;2024-02-21T14:28:40;14.13;;;6.65;;